createdAt,value
2018-05-26T00:00:08.467Z,25.33
2018-05-26T00:02:11.235Z,22.87
2018-05-26T00:04:13.967Z,22.07
2018-05-26T00:06:17.443Z,27.87
2018-05-26T00:08:20.147Z,22.07
2018-05-26T00:10:23.628Z,25.50
2018-05-26T00:12:27.088Z,26.57
2018-05-26T00:14:29.804Z,29.73
2018-05-26T00:16:33.255Z,27.00
2018-05-26T00:18:35.938Z,24.03
2018-05-26T00:20:38.659Z,26.97
2018-05-26T00:22:47.918Z,23.63
2018-05-26T00:24:50.610Z,24.27
2018-05-26T00:26:53.326Z,26.20
2018-05-26T00:28:56.770Z,27.70
2018-05-26T00:30:59.450Z,26.67
2018-05-26T00:33:02.159Z,26.40
2018-05-26T00:35:04.846Z,27.80
2018-05-26T00:37:08.267Z,27.03
2018-05-26T00:39:10.990Z,24.30
2018-05-26T00:41:13.670Z,26.13
2018-05-26T00:43:16.342Z,27.20
2018-05-26T00:45:19.076Z,28.00
2018-05-26T00:47:21.746Z,27.27
2018-05-26T00:49:24.411Z,25.43
2018-05-26T00:51:27.271Z,28.70
2018-05-26T00:53:30.741Z,28.57
2018-05-26T00:55:33.418Z,28.17
2018-05-26T00:57:36.125Z,29.33
2018-05-26T00:59:39.580Z,34.00
2018-05-26T01:01:42.280Z,31.77
2018-05-26T01:03:44.971Z,29.90
2018-05-26T01:05:48.405Z,30.53
2018-05-26T01:07:51.122Z,26.33
2018-05-26T01:09:53.800Z,27.23
2018-05-26T01:11:56.490Z,25.20
2018-05-26T01:13:59.967Z,28.20
2018-05-26T01:16:02.660Z,27.50
2018-05-26T01:18:06.105Z,26.30
2018-05-26T01:20:08.818Z,24.63
2018-05-26T01:22:12.256Z,26.30
2018-05-26T01:24:14.958Z,28.13
2018-05-26T01:26:17.665Z,28.87
2018-05-26T01:28:21.121Z,29.70
2018-05-26T01:30:23.827Z,24.90
2018-05-26T01:32:26.546Z,28.47
2018-05-26T01:34:29.228Z,30.93
2018-05-26T01:36:31.952Z,27.03
2018-05-26T01:38:34.642Z,28.70
2018-05-26T01:40:38.074Z,24.90
2018-05-26T01:42:40.832Z,26.93
2018-05-26T01:44:43.649Z,26.43
2018-05-26T01:46:46.353Z,26.83
2018-05-26T01:48:49.047Z,30.23
2018-05-26T01:50:52.487Z,25.43
2018-05-26T01:52:55.207Z,26.30
2018-05-26T01:54:58.670Z,33.87
2018-05-26T01:57:01.391Z,26.30
2018-05-26T01:59:04.902Z,27.60
2018-05-26T02:01:07.611Z,27.17
2018-05-26T02:03:10.354Z,28.23
2018-05-26T02:05:13.039Z,26.63
2018-05-26T02:07:15.693Z,25.43
2018-05-26T02:09:19.247Z,30.23
2018-05-26T02:11:21.913Z,35.20
2018-05-26T02:13:24.650Z,28.00
2018-05-26T02:15:27.343Z,29.77
2018-05-26T02:17:30.102Z,30.50
2018-05-26T02:19:32.782Z,33.43
2018-05-26T02:21:35.469Z,31.33
2018-05-26T02:23:38.945Z,28.80
2018-05-26T02:25:41.619Z,24.80
2018-05-26T02:27:44.337Z,24.47
2018-05-26T02:29:47.038Z,29.97
2018-05-26T02:31:49.728Z,26.73
2018-05-26T02:33:53.183Z,24.27
2018-05-26T02:35:55.836Z,24.23
2018-05-26T02:37:58.522Z,26.13
2018-05-26T02:40:01.214Z,26.50
2018-05-26T02:42:03.908Z,26.60
2018-05-26T02:44:06.588Z,26.37
2018-05-26T02:46:09.303Z,21.40
2018-05-26T02:48:11.985Z,32.93
2018-05-26T02:50:14.707Z,24.47
2018-05-26T02:52:17.381Z,27.70
2018-05-26T02:54:20.071Z,24.70
2018-05-26T02:56:23.561Z,27.03
2018-05-26T02:58:26.257Z,30.60
2018-05-26T03:00:29.712Z,25.30
2018-05-26T03:02:32.429Z,30.00
2018-05-26T03:04:40.861Z,26.10
2018-05-26T03:06:49.578Z,26.60
2018-05-26T03:08:58.265Z,24.17
2018-05-26T03:11:06.632Z,25.43
2018-05-26T03:13:15.092Z,26.10
2018-05-26T03:15:17.286Z,29.40
2018-05-26T03:30:18.266Z,23.83
2018-05-26T03:32:20.948Z,27.77
2018-05-26T03:34:23.674Z,25.40
2018-05-26T03:36:26.358Z,32.87
2018-05-26T03:38:29.059Z,23.67
2018-05-26T03:40:32.558Z,27.03
2018-05-26T03:42:36.008Z,25.07
2018-05-26T03:44:38.769Z,25.40
2018-05-26T03:46:41.470Z,25.93
2018-05-26T03:48:44.639Z,26.37
2018-05-26T03:50:47.370Z,27.63
2018-05-26T03:52:51.024Z,28.23
2018-05-26T03:57:56.719Z,26.80
2018-05-26T04:00:10.840Z,25.13
2018-05-26T04:02:13.555Z,27.10
2018-05-26T04:04:17.009Z,28.87
2018-05-26T04:06:19.697Z,30.10
2018-05-26T04:08:22.432Z,33.40
2018-05-26T04:10:25.143Z,27.50
2018-05-26T04:12:27.944Z,28.40
2018-05-26T04:14:30.634Z,26.60
2018-05-26T04:16:34.093Z,24.20
2018-05-26T04:18:36.814Z,23.50
2018-05-26T04:20:40.251Z,25.10
2018-05-26T04:22:42.959Z,24.63
2018-05-26T04:24:45.637Z,22.27
2018-05-26T04:26:48.418Z,20.40
2018-05-26T04:28:52.041Z,25.70
2018-05-26T04:30:55.503Z,22.60
2018-05-26T04:32:58.225Z,24.07
2018-05-26T04:35:00.907Z,22.20
2018-05-26T04:37:03.895Z,24.07
2018-05-26T04:39:06.638Z,20.60
2018-05-26T04:41:10.092Z,20.73
2018-05-26T04:43:13.530Z,22.53
2018-05-26T04:45:17.100Z,22.30
2018-05-26T04:47:21.935Z,20.80
2018-05-26T04:49:24.812Z,23.23
2018-05-26T04:51:27.523Z,22.17
2018-05-26T04:53:30.982Z,19.80
2018-05-26T04:55:33.720Z,19.77
2018-05-26T04:57:36.428Z,21.90
2018-05-26T04:59:39.141Z,20.53
2018-05-26T05:01:42.655Z,17.90
2018-05-26T05:03:45.371Z,20.97
2018-05-26T05:05:48.078Z,21.50
2018-05-26T05:07:52.910Z,22.13
2018-05-26T05:09:56.369Z,21.57
2018-05-26T05:11:59.190Z,19.50
2018-05-26T05:14:02.666Z,17.90
2018-05-26T05:16:05.458Z,25.57
2018-05-26T05:18:08.917Z,23.33
2018-05-26T05:20:11.597Z,23.17
2018-05-26T05:22:14.360Z,21.10
2018-05-26T05:24:17.032Z,21.10
2018-05-26T05:26:19.799Z,18.40
2018-05-26T05:28:22.505Z,21.90
2018-05-26T05:30:25.345Z,21.13
2018-05-26T05:32:28.065Z,22.30
2018-05-26T05:34:30.860Z,19.60
2018-05-26T05:36:33.541Z,17.50
2018-05-26T05:38:36.260Z,25.07
2018-05-26T05:40:38.984Z,22.87
2018-05-26T05:42:41.668Z,34.67
2018-05-26T05:44:44.459Z,27.73
2018-05-26T05:46:47.140Z,28.53
2018-05-26T05:48:50.735Z,23.47
2018-05-26T05:50:53.437Z,23.27
2018-05-26T05:52:56.157Z,19.73
2018-05-26T05:54:59.093Z,22.67
2018-05-26T05:57:01.944Z,20.53
2018-05-26T05:59:05.070Z,19.73
2018-05-26T06:01:07.533Z,21.67
2018-05-26T06:03:10.238Z,20.23
2018-05-26T06:05:12.992Z,18.07
2018-05-26T06:07:15.681Z,16.93
2018-05-26T06:09:18.419Z,18.57
2018-05-26T06:11:21.968Z,20.83
2018-05-26T06:13:24.778Z,15.00
2018-05-26T06:15:27.801Z,20.17
2018-05-26T06:17:30.512Z,15.60
2018-05-26T06:19:33.230Z,16.03
2018-05-26T06:21:35.944Z,18.50
2018-05-26T06:23:38.625Z,14.97
2018-05-26T06:25:41.310Z,16.60
2018-05-26T06:27:44.067Z,14.03
2018-05-26T06:29:46.738Z,16.13
2018-05-26T06:31:50.235Z,18.70
2018-05-26T06:33:53.728Z,13.50
2018-05-26T06:35:56.588Z,16.63
2018-05-26T06:38:00.074Z,18.10
2018-05-26T06:40:02.824Z,14.30
2018-05-26T06:42:05.792Z,13.90
2018-05-26T06:44:08.492Z,11.80
2018-05-26T06:46:11.213Z,12.23
2018-05-26T06:48:14.650Z,12.73
2018-05-26T06:50:17.382Z,15.37
2018-05-26T06:52:20.837Z,16.03
2018-05-26T06:54:23.521Z,17.03
2018-05-26T06:56:26.224Z,17.20
2018-05-26T06:58:29.653Z,13.80
2018-05-26T07:00:32.412Z,12.83
2018-05-26T07:02:35.166Z,13.70
2018-05-26T07:04:37.853Z,15.20
2018-05-26T07:06:43.882Z,12.53
2018-05-26T07:08:46.870Z,12.83
2018-05-26T07:10:49.884Z,11.30
2018-05-26T07:12:53.794Z,10.97
2018-05-26T07:14:56.571Z,12.60
2018-05-26T07:16:59.259Z,10.10
2018-05-26T07:19:01.967Z,9.50
2018-05-26T07:21:04.715Z,8.87
2018-05-26T07:23:07.386Z,11.80
2018-05-26T07:25:10.073Z,8.40
2018-05-26T07:27:12.807Z,8.27
2018-05-26T07:29:15.486Z,11.00
2018-05-26T07:31:18.155Z,8.10
2018-05-26T07:33:20.862Z,8.00
2018-05-26T07:35:24.313Z,8.43
2018-05-26T07:37:27.034Z,8.43
2018-05-26T07:39:30.492Z,11.10
2018-05-26T07:41:33.203Z,10.53
2018-05-26T07:43:36.109Z,8.40
2018-05-26T07:45:38.835Z,8.70
2018-05-26T07:47:41.506Z,8.53
2018-05-26T07:49:44.184Z,8.80
2018-05-26T07:51:47.987Z,7.37
2018-05-26T07:53:50.685Z,8.67
2018-05-26T07:55:53.403Z,8.47
2018-05-26T07:57:56.318Z,9.97
2018-05-26T07:59:59.115Z,10.70
2018-05-26T08:02:02.578Z,13.77
2018-05-26T08:04:05.799Z,13.43
2018-05-26T08:06:08.667Z,8.80
2018-05-26T08:08:11.350Z,14.03
2018-05-26T08:10:14.048Z,8.23
2018-05-26T08:12:16.749Z,11.10
2018-05-26T08:14:19.454Z,12.60
2018-05-26T08:16:22.456Z,9.00
2018-05-26T08:18:25.144Z,10.37
2018-05-26T08:20:28.631Z,13.90
2018-05-26T08:22:31.339Z,8.10
2018-05-26T08:24:34.061Z,8.70
2018-05-26T08:26:36.851Z,8.63
2018-05-26T08:28:39.530Z,10.00
2018-05-26T08:30:43.793Z,9.50
2018-05-26T08:35:14.416Z,12.33
2018-05-26T08:37:17.892Z,21.23
2018-05-26T08:39:20.884Z,7.00
2018-05-26T08:41:23.608Z,6.67
2018-05-26T08:43:26.317Z,8.63
2018-05-26T08:45:30.258Z,7.32
2018-05-26T08:47:33.721Z,9.45
2018-05-26T08:49:36.408Z,8.70
2018-05-26T08:51:39.121Z,10.40
2018-05-26T08:53:41.963Z,6.68
2018-05-26T08:55:44.676Z,9.77
2018-05-26T08:57:47.452Z,12.23
2018-05-26T08:59:50.153Z,7.82
2018-05-26T09:01:52.882Z,9.65
2018-05-26T09:03:55.585Z,8.82
2018-05-26T09:05:58.280Z,7.20
2018-05-26T09:08:01.005Z,7.65
2018-05-26T09:10:03.760Z,10.32
2018-05-26T09:12:06.476Z,7.20
2018-05-26T09:14:09.950Z,6.90
2018-05-26T09:16:12.698Z,6.25
2018-05-26T09:18:15.408Z,10.75
2018-05-26T09:20:18.096Z,8.48
2018-05-26T09:22:20.811Z,7.10
2018-05-26T09:24:23.512Z,7.47
2018-05-26T09:26:26.214Z,11.15
2018-05-26T09:28:28.937Z,6.55
2018-05-26T09:30:31.642Z,5.75
2018-05-26T09:32:34.354Z,11.65
2018-05-26T09:34:37.023Z,5.72
2018-05-26T09:36:39.746Z,7.20
2018-05-26T09:38:42.452Z,6.15
2018-05-26T09:40:45.158Z,6.00
2018-05-26T09:42:47.853Z,6.35
2018-05-26T09:44:51.445Z,6.55
2018-05-26T09:46:54.992Z,5.82
2018-05-26T09:48:57.710Z,5.50
2018-05-26T09:51:00.396Z,6.70
2018-05-26T09:53:03.921Z,5.33
2018-05-26T09:55:06.629Z,6.40
2018-05-26T09:57:10.110Z,5.85
2018-05-26T09:59:19.438Z,5.47
2018-05-26T10:01:22.181Z,9.57
2018-05-26T10:03:25.670Z,4.50
2018-05-26T10:05:29.000Z,6.10
2018-05-26T10:07:31.759Z,5.90
2018-05-26T10:09:34.453Z,6.60
2018-05-26T10:11:37.250Z,8.03
2018-05-26T10:13:40.021Z,10.70
2018-05-26T10:15:42.702Z,4.20
2018-05-26T10:17:45.540Z,6.53
2018-05-26T10:19:49.837Z,9.43
2018-05-26T10:21:53.290Z,5.55
2018-05-26T10:23:56.018Z,8.70
2018-05-26T10:25:59.463Z,4.62
2018-05-26T10:28:02.193Z,4.35
2018-05-26T10:30:05.730Z,4.93
2018-05-26T10:32:08.405Z,4.20
2018-05-26T10:34:11.112Z,6.35
2018-05-26T10:36:14.776Z,4.50
2018-05-26T10:38:17.435Z,12.37
2018-05-26T10:40:20.169Z,9.82
2018-05-26T10:42:22.852Z,5.12
2018-05-26T10:44:25.536Z,4.80
2018-05-26T10:46:29.037Z,4.47
2018-05-26T10:48:32.519Z,5.10
2018-05-26T10:50:35.224Z,7.60
2018-05-26T10:52:38.719Z,5.78
2018-05-26T10:54:42.204Z,4.77
2018-05-26T10:56:45.975Z,5.18
2018-05-26T10:58:48.870Z,8.63
2018-05-26T11:00:55.140Z,7.33
2018-05-26T11:02:57.843Z,7.03
2018-05-26T11:05:01.053Z,6.60
2018-05-26T11:07:04.667Z,4.70
2018-05-26T11:09:08.260Z,11.07
2018-05-26T11:11:10.968Z,5.90
2018-05-26T11:13:13.658Z,4.90
2018-05-26T11:15:16.357Z,3.55
2018-05-26T11:17:19.040Z,5.40
2018-05-26T11:19:21.775Z,9.50
2018-05-26T11:21:24.513Z,4.43
2018-05-26T11:23:27.235Z,3.80
2018-05-26T11:25:30.018Z,5.83
2018-05-26T11:27:33.583Z,6.50
2018-05-26T11:29:37.061Z,3.63
2018-05-26T11:31:39.786Z,7.23
2018-05-26T11:33:42.539Z,9.10
2018-05-26T11:35:45.442Z,4.03
2018-05-26T11:37:48.134Z,4.20
2018-05-26T11:39:51.736Z,5.27
2018-05-26T11:41:55.178Z,3.80
2018-05-26T11:43:57.888Z,4.97
2018-05-26T11:46:00.619Z,3.80
2018-05-26T11:48:03.604Z,5.00
2018-05-26T11:50:06.474Z,5.70
2018-05-26T11:52:09.206Z,5.87
2018-05-26T11:54:11.897Z,3.77
2018-05-26T11:56:15.321Z,6.13
2018-05-26T11:58:17.998Z,3.60
2018-05-26T12:00:20.691Z,3.63
2018-05-26T12:02:23.384Z,7.00
2018-05-26T12:04:26.090Z,4.20
2018-05-26T12:06:28.768Z,4.97
2018-05-26T12:08:32.237Z,3.33
2018-05-26T12:10:34.968Z,3.50
2018-05-26T12:12:37.799Z,5.97
2018-05-26T12:14:40.498Z,6.90
2018-05-26T12:16:43.213Z,5.13
2018-05-26T12:18:45.969Z,4.03
2018-05-26T12:20:48.681Z,4.90
2018-05-26T12:22:51.436Z,7.10
2018-05-26T12:24:54.136Z,3.40
2018-05-26T12:26:56.876Z,3.50
2018-05-26T12:28:59.548Z,3.40
2018-05-26T12:31:03.034Z,3.23
2018-05-26T12:33:06.716Z,3.37
2018-05-26T12:35:09.427Z,5.70
2018-05-26T12:37:12.905Z,4.00
2018-05-26T12:39:15.592Z,4.03
2018-05-26T12:41:19.036Z,4.30
2018-05-26T12:43:21.802Z,5.60
2018-05-26T12:45:25.841Z,4.23
2018-05-26T12:47:28.565Z,4.13
2018-05-26T12:49:31.267Z,4.83
2018-05-26T12:51:33.958Z,3.23
2018-05-26T12:53:36.726Z,3.43
2018-05-26T12:55:39.430Z,2.93
2018-05-26T12:57:42.150Z,3.83
2018-05-26T12:59:49.301Z,5.10
2018-05-26T13:01:52.044Z,6.00
2018-05-26T13:03:54.801Z,3.57
2018-05-26T13:05:57.490Z,3.93
2018-05-26T13:08:00.227Z,7.77
2018-05-26T13:10:03.709Z,3.63
2018-05-26T13:12:06.418Z,3.43
2018-05-26T13:14:09.113Z,6.40
2018-05-26T13:16:11.836Z,4.20
2018-05-26T13:18:14.514Z,3.43
2018-05-26T13:20:17.177Z,5.30
2018-05-26T13:22:19.891Z,3.57
2018-05-26T13:24:23.350Z,5.67
2018-05-26T13:26:26.060Z,3.63
2018-05-26T13:28:29.517Z,4.50
2018-05-26T13:30:32.218Z,3.90
2018-05-26T13:32:35.675Z,4.87
2018-05-26T13:34:38.379Z,3.27
2018-05-26T13:36:41.080Z,3.53
2018-05-26T13:38:44.521Z,6.00
2018-05-26T13:40:47.237Z,3.93
2018-05-26T13:42:53.313Z,7.27
2018-05-26T13:44:56.000Z,6.33
2018-05-26T13:46:58.716Z,9.03
2018-05-26T13:49:01.414Z,7.87
2018-05-26T13:51:04.208Z,3.40
2018-05-26T13:53:06.899Z,5.60
2018-05-26T13:55:09.651Z,7.77
2018-05-26T13:57:12.305Z,4.83
2018-05-26T13:59:14.996Z,3.60
2018-05-26T14:01:17.706Z,4.47
2018-05-26T14:03:21.139Z,3.50
2018-05-26T14:05:23.874Z,7.57
2018-05-26T14:07:26.564Z,4.30
2018-05-26T14:09:29.253Z,8.00
2018-05-26T14:11:31.936Z,3.60
2018-05-26T14:13:34.603Z,5.10
2018-05-26T14:15:37.315Z,6.40
2018-05-26T14:17:40.000Z,3.97
2018-05-26T14:19:42.714Z,4.20
2018-05-26T14:21:46.161Z,4.87
2018-05-26T14:23:48.866Z,4.90
2018-05-26T14:25:52.467Z,4.13
2018-05-26T14:27:55.131Z,3.97
2018-05-26T14:29:57.861Z,4.60
2018-05-26T14:32:00.565Z,10.03
2018-05-26T14:34:03.286Z,3.57
2018-05-26T14:36:06.718Z,3.57
2018-05-26T14:38:09.422Z,4.00
2018-05-26T14:40:12.147Z,8.00
2018-05-26T14:42:14.841Z,5.00
2018-05-26T14:44:17.572Z,7.17
2018-05-26T14:46:20.297Z,4.87
2018-05-26T14:48:23.004Z,3.20
2018-05-26T14:50:25.739Z,4.60
2018-05-26T14:52:28.427Z,3.57
2018-05-26T14:54:31.131Z,4.07
2018-05-26T14:56:33.805Z,3.63
2018-05-26T14:58:36.509Z,3.50
2018-05-26T15:00:39.991Z,3.40
2018-05-26T15:02:42.668Z,3.80
2018-05-26T15:04:45.377Z,4.23
2018-05-26T15:06:48.821Z,4.53
2018-05-26T15:08:51.570Z,5.30
2018-05-26T15:10:54.292Z,5.70
2018-05-26T15:12:57.095Z,5.73
2018-05-26T15:14:59.731Z,4.90
2018-05-26T15:17:02.441Z,6.20
2018-05-26T15:19:05.147Z,6.67
2018-05-26T15:21:07.841Z,5.30
2018-05-26T15:23:10.574Z,6.63
2018-05-26T15:25:14.047Z,4.50
2018-05-26T15:27:16.767Z,4.13
2018-05-26T15:29:19.465Z,4.63
2018-05-26T15:31:22.209Z,4.20
2018-05-26T15:33:25.675Z,3.50
2018-05-26T15:35:28.349Z,4.13
2018-05-26T15:37:31.038Z,7.07
2018-05-26T15:39:33.720Z,4.17
2018-05-26T15:41:36.405Z,4.53
2018-05-26T15:43:39.898Z,5.40
2018-05-26T15:45:43.359Z,5.40
2018-05-26T15:47:46.083Z,4.00
2018-05-26T15:49:49.538Z,9.63
2018-05-26T15:51:52.264Z,16.37
2018-05-26T15:53:54.949Z,13.93
2018-05-26T15:55:57.645Z,8.97
2018-05-26T15:58:00.364Z,7.27
2018-05-26T16:00:03.079Z,6.60
2018-05-26T16:02:05.763Z,4.03
2018-05-26T16:04:08.457Z,4.33
2018-05-26T16:06:11.949Z,4.40
2018-05-26T16:08:14.636Z,4.30
2018-05-26T16:10:21.825Z,6.27
2018-05-26T16:12:24.518Z,4.90
2018-05-26T16:14:27.193Z,6.00
2018-05-26T16:16:29.888Z,6.40
2018-05-26T16:18:33.402Z,4.57
2018-05-26T16:20:36.075Z,7.30
2018-05-26T16:22:39.532Z,4.47
2018-05-26T16:24:42.215Z,4.17
2018-05-26T16:26:44.938Z,5.60
2018-05-26T16:28:47.621Z,5.70
2018-05-26T16:30:50.331Z,5.83
2018-05-26T16:32:53.026Z,4.40
2018-05-26T16:34:55.708Z,16.63
2018-05-26T16:36:58.410Z,6.13
2018-05-26T16:39:01.130Z,3.80
2018-05-26T16:41:03.834Z,8.40
2018-05-26T16:43:06.508Z,4.03
2018-05-26T16:45:09.239Z,4.10
2018-05-26T16:47:11.936Z,5.50
2018-05-26T16:49:14.625Z,4.53
2018-05-26T16:51:17.350Z,3.70
2018-05-26T16:53:20.029Z,5.33
2018-05-26T16:55:22.742Z,4.47
2018-05-26T16:57:25.440Z,7.50
2018-05-26T16:59:28.110Z,4.03
2018-05-26T17:01:30.833Z,4.23
2018-05-26T17:03:33.520Z,3.87
2018-05-26T17:05:36.384Z,5.23
2018-05-26T17:07:39.814Z,4.60
2018-05-26T17:09:42.536Z,4.20
2018-05-26T17:11:45.217Z,4.90
2018-05-26T17:13:48.675Z,5.10
2018-05-26T17:15:51.459Z,6.60
2018-05-26T17:17:54.145Z,5.43
2018-05-26T17:19:56.854Z,4.73
2018-05-26T17:22:00.293Z,5.40
2018-05-26T17:24:03.024Z,8.33
2018-05-26T17:26:06.494Z,6.37
2018-05-26T17:28:09.179Z,7.10
2018-05-26T17:30:11.876Z,4.40
2018-05-26T17:32:15.310Z,3.47
2018-05-26T17:34:18.091Z,4.27
2018-05-26T17:36:20.784Z,5.87
2018-05-26T17:38:23.484Z,6.73
2018-05-26T17:40:26.174Z,4.57
2018-05-26T17:42:29.832Z,6.70
2018-05-26T17:44:32.544Z,5.00
2018-05-26T17:46:36.014Z,4.70
2018-05-26T17:48:49.260Z,4.90
2018-05-26T17:50:51.941Z,6.43
2018-05-26T17:52:55.422Z,5.17
2018-05-26T17:54:58.120Z,5.00
2018-05-26T17:57:01.699Z,4.10
2018-05-26T17:59:06.325Z,4.07
2018-05-26T18:01:09.016Z,6.20
2018-05-26T18:03:12.551Z,5.13
2018-05-26T18:05:15.223Z,4.30
2018-05-26T18:07:18.031Z,4.67
2018-05-26T18:09:20.755Z,4.07
2018-05-26T18:11:24.296Z,7.47
2018-05-26T18:13:27.029Z,4.23
2018-05-26T18:15:30.492Z,6.47
2018-05-26T18:17:33.209Z,5.43
2018-05-26T18:19:35.942Z,16.47
2018-05-26T18:21:38.664Z,9.43
2018-05-26T18:23:41.389Z,8.47
2018-05-26T18:25:44.142Z,9.37
2018-05-26T18:27:46.854Z,7.13
2018-05-26T18:29:49.589Z,6.93
2018-05-26T18:31:52.553Z,9.40
2018-05-26T18:33:56.018Z,7.43
2018-05-26T18:35:58.690Z,8.43
2018-05-26T18:38:01.400Z,10.57
2018-05-26T18:40:04.871Z,19.17
2018-05-26T18:42:07.606Z,9.97
2018-05-26T18:44:10.309Z,7.30
2018-05-26T18:46:13.002Z,8.27
2018-05-26T18:48:15.723Z,11.80
2018-05-26T18:50:18.424Z,9.53
2018-05-26T18:52:21.164Z,13.93
2018-05-26T18:54:23.887Z,11.50
2018-05-26T18:56:26.616Z,11.23
2018-05-26T18:58:29.723Z,9.50
2018-05-26T19:00:32.923Z,10.03
2018-05-26T19:02:35.750Z,12.93
2018-05-26T19:04:39.306Z,10.90
2018-05-26T19:06:42.034Z,11.87
2018-05-26T19:08:45.502Z,11.23
2018-05-26T19:10:48.194Z,5.80
2018-05-26T19:12:51.702Z,10.20
2018-05-26T19:14:55.181Z,9.43
2018-05-26T19:16:57.922Z,8.63
2018-05-26T19:19:00.625Z,11.03
2018-05-26T19:21:03.373Z,7.93
2018-05-26T19:23:06.091Z,6.47
2018-05-26T19:25:09.559Z,10.60
2018-05-26T19:27:12.280Z,5.10
2018-05-26T19:29:15.742Z,18.53
2018-05-26T19:31:18.491Z,11.33
2018-05-26T19:33:21.978Z,9.50
2018-05-26T19:35:24.813Z,12.63
2018-05-26T19:37:27.574Z,11.63
2018-05-26T19:39:30.287Z,5.90
2018-05-26T19:41:33.026Z,8.33
2018-05-26T19:43:35.734Z,9.10
2018-05-26T19:45:39.204Z,6.97
2018-05-26T19:47:41.917Z,8.70
2018-05-26T19:49:44.616Z,10.33
2018-05-26T19:51:47.343Z,6.23
2018-05-26T19:53:50.055Z,11.70
2018-05-26T19:55:52.776Z,9.20
2018-05-26T19:57:55.555Z,8.40
2018-05-26T20:00:02.768Z,6.00
2018-05-26T20:02:06.343Z,8.60
2018-05-26T20:04:09.184Z,13.00
2018-05-26T20:06:29.797Z,5.60
2018-05-26T20:08:32.509Z,5.97
2018-05-26T20:10:38.698Z,12.43
2018-05-26T20:12:42.219Z,13.90
2018-05-26T20:14:45.024Z,6.20
2018-05-26T20:16:47.909Z,11.50
2018-05-26T20:18:50.622Z,6.80
2018-05-26T20:20:54.144Z,15.10
2018-05-26T20:22:56.867Z,8.00
2018-05-26T20:24:59.610Z,8.90
2018-05-26T20:27:02.356Z,9.03
2018-05-26T20:29:05.957Z,7.40
2018-05-26T20:31:08.662Z,12.43
2018-05-26T20:33:13.891Z,8.13
2018-05-26T20:35:16.588Z,6.80
2018-05-26T20:37:19.306Z,7.63
2018-05-26T20:39:22.813Z,7.40
2018-05-26T20:41:26.246Z,9.90
2018-05-26T20:43:29.055Z,9.13
2018-05-26T20:45:31.723Z,6.90
2018-05-26T20:47:35.338Z,14.17
2018-05-26T20:49:38.076Z,11.63
2018-05-26T20:51:40.780Z,8.23
2018-05-26T20:53:43.465Z,8.20
2018-05-26T20:55:46.162Z,10.47
2018-05-26T20:57:49.661Z,14.87
2018-05-26T20:59:53.211Z,7.30
2018-05-26T21:01:55.934Z,7.43
2018-05-26T21:03:59.558Z,8.87
2018-05-26T21:06:02.279Z,10.83
2018-05-26T21:08:05.140Z,9.57
2018-05-26T21:10:07.869Z,10.63
2018-05-26T21:12:10.613Z,12.50
2018-05-26T21:14:13.343Z,6.50
2018-05-26T21:16:16.037Z,7.07
2018-05-26T21:18:18.761Z,16.50
2018-05-26T21:20:21.512Z,8.50
2018-05-26T21:22:24.225Z,10.57
2018-05-26T21:24:27.912Z,9.37
2018-05-26T21:26:30.608Z,11.33
2018-05-26T21:28:34.416Z,10.27
2018-05-26T21:30:37.141Z,6.83
2018-05-26T21:32:39.866Z,17.03
2018-05-26T21:34:43.308Z,8.60
2018-05-26T21:36:45.995Z,9.20
2018-05-26T21:38:48.735Z,9.10
2018-05-26T21:40:52.470Z,7.37
2018-05-26T21:42:55.285Z,12.20
2018-05-26T21:44:58.041Z,11.90
2018-05-26T21:47:00.898Z,7.30
2018-05-26T21:49:03.713Z,11.07
2018-05-26T21:51:06.443Z,8.10
2018-05-26T21:53:09.197Z,8.67
2018-05-26T21:55:12.653Z,10.00
2018-05-26T21:57:15.426Z,8.80
2018-05-26T21:59:18.112Z,11.13
2018-05-26T22:01:20.850Z,10.27
2018-05-26T22:03:24.485Z,8.30
2018-05-26T22:05:28.238Z,9.53
2018-05-26T22:07:30.977Z,19.20
2018-05-26T22:09:33.670Z,8.03
2018-05-26T22:11:37.208Z,8.13
2018-05-26T22:13:39.947Z,10.90
2018-05-26T22:15:44.525Z,9.53
2018-05-26T22:17:47.220Z,8.63
2018-05-26T22:19:49.927Z,9.87
2018-05-26T22:21:53.396Z,11.23
2018-05-26T22:23:56.090Z,10.10
2018-05-26T22:25:58.763Z,8.40
2018-05-26T22:28:02.238Z,13.03
2018-05-26T22:30:04.988Z,11.93
2018-05-26T22:32:07.692Z,10.17
2018-05-26T22:34:10.417Z,8.90
2018-05-26T22:36:13.108Z,12.77
2018-05-26T22:38:15.825Z,8.20
2018-05-26T22:40:18.567Z,8.27
2018-05-26T22:42:21.267Z,9.30
2018-05-26T22:44:23.964Z,8.53
2018-05-26T22:46:26.653Z,11.77
2018-05-26T22:48:30.146Z,12.37
2018-05-26T22:50:32.889Z,7.87
2018-05-26T22:52:35.573Z,18.60
2018-05-26T22:54:38.299Z,10.60
2018-05-26T22:56:41.051Z,9.20
2018-05-26T22:58:43.798Z,11.37
2018-05-26T23:00:46.503Z,9.80
2018-05-26T23:02:49.222Z,10.30
2018-05-26T23:04:51.958Z,12.20
2018-05-26T23:06:54.683Z,12.50
2018-05-26T23:08:57.383Z,10.77
2018-05-26T23:11:00.092Z,11.17
2018-05-26T23:13:02.770Z,13.23
2018-05-26T23:15:05.455Z,11.17
2018-05-26T23:17:08.914Z,14.73
2018-05-26T23:19:11.687Z,12.77
2018-05-26T23:21:14.396Z,13.53
2018-05-26T23:23:17.129Z,12.13
2018-05-26T23:25:19.836Z,11.53
2018-05-26T23:27:22.497Z,10.73
2018-05-26T23:29:25.190Z,16.60
2018-05-26T23:31:28.075Z,10.70
2018-05-26T23:33:30.806Z,9.60
2018-05-26T23:35:33.520Z,9.80
2018-05-26T23:37:37.148Z,10.57
2018-05-26T23:39:40.604Z,11.07
2018-05-26T23:41:43.288Z,10.23
2018-05-26T23:43:45.976Z,10.93
2018-05-26T23:45:48.853Z,11.10
2018-05-26T23:47:51.538Z,10.90
2018-05-26T23:49:54.225Z,10.70
2018-05-26T23:51:56.986Z,12.83
2018-05-26T23:53:59.651Z,12.80
2018-05-26T23:56:02.397Z,14.70
2018-05-26T23:58:05.136Z,21.13
